Time Latitude Longitude Accuracy (66% radius in meters) Altitude (meters) Speed (km/hour) Bearing (degrees) Battery (%) GPS flag
06:49:04 57.203677 60.118739 4.2880001068115 333.86529541016 0 0 42 1 delete
06:48:53 57.203677 60.118737 4.2880001068115 333.67224121094 0 0 42 1 delete
06:48:43 57.203676 60.118735 3.2160000801086 333.54272460938 0 0 42 1 delete
06:48:33 57.203696 60.118715 3.2160000801086 335.99682617188 0 0 42 1 delete
06:48:22 57.203695 60.118705 3.2160000801086 336.67437744141 0 0 42 1 delete
06:48:12 57.203694 60.118704 3.2160000801086 336.61791992188 0 0 42 1 delete
06:48:01 57.203695 60.118704 3.2160000801086 336.75573730469 0 0 42 1 delete
06:47:51 57.203695 60.118703 3.2160000801086 336.72991943359 0 0 42 1 delete
06:47:41 57.203694 60.118702 4.2880001068115 336.7353515625 0 0 42 1 delete
06:47:30 57.203694 60.118700 5.3600001335144 336.59637451172 0 0 42 1 delete
06:47:19 57.203692 60.118698 4.2880001068115 336.30865478516 0 0 42 1 delete
06:47:16 57.203692 60.118697 5.3600001335144 336.32275390625 0 0 42 1 delete
06:47:09 57.203688 60.118694 5.3600001335144 336.07824707031 0 0 42 1 delete
06:46:59 57.203676 60.118683 4.2880001068115 333.96881103516 0 0 42 1 delete
06:46:47 57.203657 60.118640 3.2160000801086 332.53369140625 0 0 42 1 delete
06:46:37 57.203645 60.118608 5.3600001335144 330.76232910156 0 0 42 1 delete
06:46:27 57.203645 60.118607 4.2880001068115 330.74365234375 0 0 42 1 delete
06:46:16 57.203645 60.118606 4.2880001068115 330.72723388672 0 0 42 1 delete
06:46:05 57.203645 60.118605 4.2880001068115 330.73083496094 0 0 42 1 delete
06:45:55 57.203645 60.118604 3.2160000801086 330.77697753906 0 0 42 1 delete
06:45:45 57.203645 60.118604 4.2880001068115 330.78698730469 0 0 42 1 delete
06:45:34 57.203645 60.118601 5.3600001335144 330.78894042969 0 0 42 1 delete
06:45:24 57.203646 60.118599 3.2160000801086 330.80004882812 0 0 42 1 delete
06:45:14 57.203647 60.118586 3.2160000801086 331.33819580078 0 0 42 1 delete
06:45:10 57.203648 60.118553 3.2160000801086 331.91455078125 0 0 42 1 delete
06:45:03 57.203642 60.118520 4.2880001068115 331.70288085938 0 0 42 1 delete
06:45:00 57.203666 60.118388 4.2880001068115 334.43060302734 3.5099999904633 120.69999694824 42 1 delete
06:44:57 57.203718 60.118184 4.2880001068115 333.21398925781 4.0999999046326 113.30000305176 42 1 delete
06:44:54 57.203756 60.117968 5.3600001335144 330.98022460938 4.1199998855591 118 42 1 delete
06:44:52 57.203775 60.117764 5.3600001335144 330.37451171875 4.4400000572205 98.800003051758 42 1 delete
06:44:50 57.203781 60.117543 4.2880001068115 329.49768066406 3.9900000095367 84 42 1 delete
06:44:48 57.203770 60.117362 5.3600001335144 330.11999511719 3.3199999332428 72.199996948242 42 1 delete
06:44:45 57.203731 60.117195 4.2880001068115 331.13018798828 3.9100000858307 50.299999237061 42 1 delete
06:44:42 57.203687 60.116996 4.2880001068115 331.82299804688 4.6300001144409 75.900001525879 42 1 delete
06:44:39 57.203651 60.116813 5.3600001335144 332.79675292969 3.0699999332428 70.199996948242 42 1 delete
06:44:35 57.203624 60.116599 5.3600001335144 333.09826660156 2.8900001049042 94 42 1 delete
06:44:32 57.203634 60.116487 4.2880001068115 330.33703613281 0.99000000953674 97.699996948242 42 1 delete
06:44:29 57.203636 60.116394 4.2880001068115 328.84515380859 2.6600000858307 89.800003051758 42 1 delete
06:44:24 57.203629 60.116200 4.2880001068115 326.97637939453 3.4900000095367 74.300003051758 42 1 delete
06:44:21 57.203607 60.116045 4.2880001068115 325.30059814453 3.25 68.300003051758 42 1 delete
06:44:20 57.203598 60.116008 3.2160000801086 324.22119140625 4.6399998664856 63.5 42 1 delete
06:44:18 57.203536 60.115878 3.2160000801086 325.68005371094 5.3600001335144 44.200000762939 42 1 delete
06:44:15 57.203448 60.115693 4.2880001068115 324.22021484375 4.8400001525879 26.799999237061 42 1 delete
06:44:13 57.203377 60.115590 4.2880001068115 324.14886474609 6.0799999237061 43.5 42 1 delete
06:44:11 57.203298 60.115446 5.3600001335144 326.27844238281 4.9400000572205 52 42 1 delete
06:44:10 57.203271 60.115400 4.2880001068115 327.03479003906 5.5700001716614 53.299999237061 42 1 delete
06:44:08 57.203233 60.115244 4.2880001068115 326.26281738281 4.5999999046326 58.299999237061 42 1 delete
06:44:05 57.203193 60.115066 4.2880001068115 327.75415039062 3.4000000953674 63.700000762939 42 1 delete
06:44:00 57.203247 60.114903 5.3600001335144 332.24267578125 2.4000000953674 165 42 1 delete
06:43:54 57.203322 60.114811 4.2880001068115 328.89599609375 0.80000001192093 132.30000305176 42 1 delete